sensor_id;sensor_type;location;lat;lon;timestamp;pressure;altitude;pressure_sealevel;temperature;humidity
53651;BME280;39552;45.776;15.892;2022-12-18T00:02:02;101947.81;;;4.71;100.00
53651;BME280;39552;45.776;15.892;2022-12-18T00:04:29;101937.06;;;4.73;100.00
53651;BME280;39552;45.776;15.892;2022-12-18T00:06:56;101952.31;;;4.65;100.00
53651;BME280;39552;45.776;15.892;2022-12-18T00:09:24;101951.38;;;4.73;100.00
53651;BME280;39552;45.776;15.892;2022-12-18T00:14:48;101932.63;;;4.70;100.00
53651;BME280;39552;45.776;15.892;2022-12-18T00:17:28;101950.38;;;4.82;100.00
53651;BME280;39552;45.776;15.892;2022-12-18T00:20:11;101939.72;;;4.76;100.00
53651;BME280;39552;45.776;15.892;2022-12-18T00:22:41;101978.06;;;4.86;100.00
53651;BME280;39552;45.776;15.892;2022-12-18T00:25:17;101969.16;;;4.82;100.00
53651;BME280;39552;45.776;15.892;2022-12-18T00:27:47;101966.41;;;4.91;100.00
53651;BME280;39552;45.776;15.892;2022-12-18T00:30:22;101965.53;;;4.89;100.00
53651;BME280;39552;45.776;15.892;2022-12-18T00:32:51;101970.03;;;4.84;100.00
53651;BME280;39552;45.776;15.892;2022-12-18T00:35:36;101989.78;;;4.77;100.00
53651;BME280;39552;45.776;15.892;2022-12-18T00:38:17;101980.75;;;4.89;100.00
53651;BME280;39552;45.776;15.892;2022-12-18T00:41:15;101987.06;;;4.80;100.00
53651;BME280;39552;45.776;15.892;2022-12-18T00:43:59;101985.19;;;4.88;100.00
53651;BME280;39552;45.776;15.892;2022-12-18T00:46:39;101981.69;;;4.79;100.00
53651;BME280;39552;45.776;15.892;2022-12-18T00:49:15;101979.94;;;4.76;100.00
53651;BME280;39552;45.776;15.892;2022-12-18T00:51:57;102001.34;;;4.82;100.00
53651;BME280;39552;45.776;15.892;2022-12-18T00:54:45;101968.50;;;4.51;100.00
53651;BME280;39552;45.776;15.892;2022-12-18T00:57:33;101967.63;;;4.50;100.00
53651;BME280;39552;45.776;15.892;2022-12-18T01:00:24;102004.09;;;4.73;100.00
53651;BME280;39552;45.776;15.892;2022-12-18T01:02:59;101978.41;;;4.38;100.00
53651;BME280;39552;45.776;15.892;2022-12-18T01:05:38;102010.59;;;4.32;100.00
53651;BME280;39552;45.776;15.892;2022-12-18T01:08:31;102007.97;;;4.29;100.00
53651;BME280;39552;45.776;15.892;2022-12-18T01:11:17;102006.16;;;4.31;100.00
53651;BME280;39552;45.776;15.892;2022-12-18T01:14:19;102013.34;;;4.20;100.00
53651;BME280;39552;45.776;15.892;2022-12-18T01:17:10;102016.91;;;4.22;100.00
53651;BME280;39552;45.776;15.892;2022-12-18T01:19:51;102005.41;;;4.04;100.00
53651;BME280;39552;45.776;15.892;2022-12-18T01:22:31;102016.91;;;4.17;100.00
53651;BME280;39552;45.776;15.892;2022-12-18T01:25:24;102001.81;;;4.05;100.00
53651;BME280;39552;45.776;15.892;2022-12-18T01:28:03;102000.03;;;4.04;100.00
53651;BME280;39552;45.776;15.892;2022-12-18T01:34:07;102019.59;;;4.22;100.00
53651;BME280;39552;45.776;15.892;2022-12-18T01:37:08;102000.00;;;4.13;100.00
53651;BME280;39552;45.776;15.892;2022-12-18T01:39:51;102032.97;;;4.25;100.00
53651;BME280;39552;45.776;15.892;2022-12-18T01:42:30;101996.47;;;4.02;100.00
53651;BME280;39552;45.776;15.892;2022-12-18T01:45:31;102041.03;;;4.23;100.00
53651;BME280;39552;45.776;15.892;2022-12-18T01:48:13;102031.22;;;4.13;100.00
53651;BME280;39552;45.776;15.892;2022-12-18T01:51:04;102023.19;;;4.18;100.00
53651;BME280;39552;45.776;15.892;2022-12-18T01:53:43;102028.59;;;4.11;100.00
53651;BME280;39552;45.776;15.892;2022-12-18T01:56:31;102009.00;;;4.00;100.00
53651;BME280;39552;45.776;15.892;2022-12-18T01:59:12;102027.66;;;4.11;100.00
53651;BME280;39552;45.776;15.892;2022-12-18T02:01:45;102050.78;;;4.37;100.00
53651;BME280;39552;45.776;15.892;2022-12-18T02:04:22;102024.13;;;4.01;100.00
53651;BME280;39552;45.776;15.892;2022-12-18T02:07:14;102018.75;;;4.09;100.00
53651;BME280;39552;45.776;15.892;2022-12-18T02:09:59;102039.31;;;4.11;100.00
53651;BME280;39552;45.776;15.892;2022-12-18T02:12:40;102041.97;;;4.10;100.00
53651;BME280;39552;45.776;15.892;2022-12-18T02:15:30;102068.69;;;4.22;100.00
53651;BME280;39552;45.776;15.892;2022-12-18T02:18:21;102067.84;;;4.11;100.00
53651;BME280;39552;45.776;15.892;2022-12-18T02:21:12;102055.38;;;4.08;100.00
53651;BME280;39552;45.776;15.892;2022-12-18T02:24:04;102064.31;;;4.03;100.00
53651;BME280;39552;45.776;15.892;2022-12-18T02:26:58;102073.22;;;4.08;100.00
53651;BME280;39552;45.776;15.892;2022-12-18T02:30:11;102072.34;;;4.01;100.00
53651;BME280;39552;45.776;15.892;2022-12-18T02:32:52;102051.84;;;4.00;100.00
53651;BME280;39552;45.776;15.892;2022-12-18T02:35:35;102050.06;;;3.96;100.00
53651;BME280;39552;45.776;15.892;2022-12-18T02:38:09;102048.31;;;3.77;100.00
53651;BME280;39552;45.776;15.892;2022-12-18T02:41:01;102073.28;;;3.94;100.00
53651;BME280;39552;45.776;15.892;2022-12-18T02:44:06;102075.06;;;3.84;100.00
53651;BME280;39552;45.776;15.892;2022-12-18T02:46:53;102060.81;;;3.74;100.00
53651;BME280;39552;45.776;15.892;2022-12-18T02:49:34;102075.09;;;3.70;100.00
53651;BME280;39552;45.776;15.892;2022-12-18T02:52:18;102073.31;;;3.74;100.00
53651;BME280;39552;45.776;15.892;2022-12-18T02:55:23;102062.63;;;3.57;100.00
53651;BME280;39552;45.776;15.892;2022-12-18T02:58:11;102076.91;;;3.70;100.00
53651;BME280;39552;45.776;15.892;2022-12-18T03:01:03;102073.34;;;3.63;100.00
53651;BME280;39552;45.776;15.892;2022-12-18T03:03:57;102075.09;;;3.78;100.00
53651;BME280;39552;45.776;15.892;2022-12-18T03:06:57;102084.91;;;3.74;100.00
53651;BME280;39552;45.776;15.892;2022-12-18T03:09:32;102084.91;;;3.87;100.00
53651;BME280;39552;45.776;15.892;2022-12-18T03:12:14;102073.28;;;3.88;100.00
53651;BME280;39552;45.776;15.892;2022-12-18T03:14:47;102085.72;;;4.01;100.00
53651;BME280;39552;45.776;15.892;2022-12-18T03:17:43;102077.81;;;3.61;100.00
53651;BME280;39552;45.776;15.892;2022-12-18T03:20:25;102099.19;;;3.77;100.00
53651;BME280;39552;45.776;15.892;2022-12-18T03:23:10;102093.84;;;3.63;100.00
53651;BME280;39552;45.776;15.892;2022-12-18T03:25:50;102067.09;;;3.55;100.00
53651;BME280;39552;45.776;15.892;2022-12-18T03:28:53;102069.78;;;3.49;100.00
53651;BME280;39552;45.776;15.892;2022-12-18T03:31:46;102087.63;;;3.48;100.00
53651;BME280;39552;45.776;15.892;2022-12-18T03:34:29;102106.34;;;3.59;100.00
53651;BME280;39552;45.776;15.892;2022-12-18T03:37:11;102104.53;;;3.70;100.00
53651;BME280;39552;45.776;15.892;2022-12-18T03:40:06;102102.78;;;3.62;100.00
53651;BME280;39552;45.776;15.892;2022-12-18T03:42:56;102099.19;;;3.69;100.00
53651;BME280;39552;45.776;15.892;2022-12-18T03:45:43;102108.13;;;3.69;100.00
53651;BME280;39552;45.776;15.892;2022-12-18T03:48:38;102106.34;;;3.62;100.00
53651;BME280;39552;45.776;15.892;2022-12-18T03:51:23;102119.75;;;3.65;100.00
53651;BME280;39552;45.776;15.892;2022-12-18T03:53:57;102090.28;;;3.54;100.00
53651;BME280;39552;45.776;15.892;2022-12-18T03:56:53;102109.03;;;3.62;100.00
53651;BME280;39552;45.776;15.892;2022-12-18T03:59:34;102128.63;;;3.83;100.00
53651;BME280;39552;45.776;15.892;2022-12-18T04:02:29;102118.78;;;3.88;100.00
53651;BME280;39552;45.776;15.892;2022-12-18T04:05:08;102131.28;;;3.92;100.00
53651;BME280;39552;45.776;15.892;2022-12-18T04:07:42;102124.19;;;3.59;100.00
53651;BME280;39552;45.776;15.892;2022-12-18T04:10:47;102117.97;;;3.52;100.00
53651;BME280;39552;45.776;15.892;2022-12-18T04:13:27;102156.28;;;3.80;100.00
53651;BME280;39552;45.776;15.892;2022-12-18T04:16:13;102132.19;;;3.72;100.00
53651;BME280;39552;45.776;15.892;2022-12-18T04:18:58;102133.13;;;3.47;100.00
53651;BME280;39552;45.776;15.892;2022-12-18T04:21:51;102156.28;;;3.42;100.00
53651;BME280;39552;45.776;15.892;2022-12-18T04:24:40;102145.59;;;3.57;100.00
53651;BME280;39552;45.776;15.892;2022-12-18T04:27:18;102130.44;;;3.24;100.00
53651;BME280;39552;45.776;15.892;2022-12-18T04:30:00;102158.09;;;3.43;100.00
53651;BME280;39552;45.776;15.892;2022-12-18T04:32:36;102135.75;;;3.08;100.00
53651;BME280;39552;45.776;15.892;2022-12-18T04:35:30;102137.53;;;2.95;100.00
53651;BME280;39552;45.776;15.892;2022-12-18T04:38:10;102140.22;;;3.08;100.00
53651;BME280;39552;45.776;15.892;2022-12-18T04:41:02;102147.31;;;2.93;100.00
53651;BME280;39552;45.776;15.892;2022-12-18T04:43:51;102166.03;;;2.97;100.00
53651;BME280;39552;45.776;15.892;2022-12-18T04:46:39;102185.63;;;2.91;100.00
53651;BME280;39552;45.776;15.892;2022-12-18T04:52:17;102170.38;;;2.62;100.00
53651;BME280;39552;45.776;15.892;2022-12-18T04:55:20;102191.78;;;2.68;100.00
53651;BME280;39552;45.776;15.892;2022-12-18T04:58:02;102188.25;;;2.75;100.00
53651;BME280;39552;45.776;15.892;2022-12-18T05:00:43;102195.38;;;2.80;100.00
53651;BME280;39552;45.776;15.892;2022-12-18T05:03:19;102189.13;;;2.73;100.00
53651;BME280;39552;45.776;15.892;2022-12-18T05:06:07;102188.16;;;2.52;100.00
53651;BME280;39552;45.776;15.892;2022-12-18T05:09:04;102185.56;;;2.65;100.00
53651;BME280;39552;45.776;15.892;2022-12-18T05:11:46;102180.09;;;2.45;100.00
53651;BME280;39552;45.776;15.892;2022-12-18T05:15:11;102208.72;;;2.72;100.00
53651;BME280;39552;45.776;15.892;2022-12-18T05:18:13;102214.06;;;2.69;100.00
53651;BME280;39552;45.776;15.892;2022-12-18T05:21:02;102210.50;;;2.76;100.00
53651;BME280;39552;45.776;15.892;2022-12-18T05:23:33;102221.22;;;2.73;100.00
53651;BME280;39552;45.776;15.892;2022-12-18T05:26:22;102220.25;;;2.60;100.00
53651;BME280;39552;45.776;15.892;2022-12-18T05:29:08;102210.41;;;2.53;100.00
53651;BME280;39552;45.776;15.892;2022-12-18T05:31:59;102199.69;;;2.45;100.00
53651;BME280;39552;45.776;15.892;2022-12-18T05:34:46;102228.22;;;2.49;100.00
53651;BME280;39552;45.776;15.892;2022-12-18T05:37:18;102238.91;;;2.48;100.00
53651;BME280;39552;45.776;15.892;2022-12-18T05:43:10;102258.47;;;2.44;100.00
53651;BME280;39552;45.776;15.892;2022-12-18T05:45:52;102278.97;;;2.49;100.00
53651;BME280;39552;45.776;15.892;2022-12-18T05:48:23;102277.13;;;2.39;100.00
53651;BME280;39552;45.776;15.892;2022-12-18T05:51:07;102270.78;;;2.25;100.00
53651;BME280;39552;45.776;15.892;2022-12-18T05:53:42;102273.44;;;2.19;100.00
53651;BME280;39552;45.776;15.892;2022-12-18T05:56:33;102293.03;;;2.21;100.00
53651;BME280;39552;45.776;15.892;2022-12-18T05:59:17;102302.88;;;2.29;100.00
53651;BME280;39552;45.776;15.892;2022-12-18T06:01:56;102294.84;;;2.28;100.00
53651;BME280;39552;45.776;15.892;2022-12-18T06:04:43;102320.75;;;2.41;100.00
53651;BME280;39552;45.776;15.892;2022-12-18T06:07:16;102315.53;;;2.58;100.00
53651;BME280;39552;45.776;15.892;2022-12-18T06:10:00;102325.34;;;2.58;100.00
53651;BME280;39552;45.776;15.892;2022-12-18T06:12:50;102302.22;;;2.63;100.00
53651;BME280;39552;45.776;15.892;2022-12-18T06:15:28;102319.06;;;2.54;100.00
53651;BME280;39552;45.776;15.892;2022-12-18T06:18:04;102308.41;;;2.55;100.00
53651;BME280;39552;45.776;15.892;2022-12-18T06:20:53;102324.56;;;2.75;100.00
53651;BME280;39552;45.776;15.892;2022-12-18T06:23:31;102307.53;;;2.60;100.00
53651;BME280;39552;45.776;15.892;2022-12-18T06:26:13;102295.91;;;2.54;100.00
53651;BME280;39552;45.776;15.892;2022-12-18T06:28:48;102308.56;;;2.83;100.00
53651;BME280;39552;45.776;15.892;2022-12-18T06:31:51;102306.63;;;2.61;100.00
53651;BME280;39552;45.776;15.892;2022-12-18T06:34:32;102322.81;;;2.82;100.00
53651;BME280;39552;45.776;15.892;2022-12-18T06:39:59;102294.16;;;2.58;100.00
53651;BME280;39552;45.776;15.892;2022-12-18T06:42:37;102312.03;;;2.70;100.00
53651;BME280;39552;45.776;15.892;2022-12-18T06:45:30;102318.28;;;2.72;100.00
53651;BME280;39552;45.776;15.892;2022-12-18T06:48:23;102320.97;;;2.69;100.00
53651;BME280;39552;45.776;15.892;2022-12-18T06:51:25;102337.91;;;2.71;100.00
53651;BME280;39552;45.776;15.892;2022-12-18T06:54:28;102344.22;;;2.82;100.00
53651;BME280;39552;45.776;15.892;2022-12-18T06:56:55;102334.41;;;2.84;100.00
53651;BME280;39552;45.776;15.892;2022-12-18T06:59:21;102347.75;;;2.81;100.00
53651;BME280;39552;45.776;15.892;2022-12-18T07:01:48;102342.41;;;2.81;100.00
53651;BME280;39552;45.776;15.892;2022-12-18T07:04:15;102350.50;;;2.90;100.00
53651;BME280;39552;45.776;15.892;2022-12-18T07:06:42;102351.31;;;2.83;100.00
53651;BME280;39552;45.776;15.892;2022-12-18T07:09:08;102355.75;;;2.78;100.00
53651;BME280;39552;45.776;15.892;2022-12-18T07:11:36;102323.69;;;2.77;100.00
53651;BME280;39552;45.776;15.892;2022-12-18T07:14:03;102359.34;;;2.79;100.00
53651;BME280;39552;45.776;15.892;2022-12-18T07:16:29;102358.41;;;2.78;100.00
53651;BME280;39552;45.776;15.892;2022-12-18T07:18:56;102361.06;;;2.73;100.00
53651;BME280;39552;45.776;15.892;2022-12-18T07:21:24;102360.28;;;2.88;100.00
53651;BME280;39552;45.776;15.892;2022-12-18T07:23:53;102357.47;;;2.70;100.00
53651;BME280;39552;45.776;15.892;2022-12-18T07:26:21;102363.72;;;2.70;100.00
53651;BME280;39552;45.776;15.892;2022-12-18T07:28:56;102359.28;;;2.74;100.00
53651;BME280;39552;45.776;15.892;2022-12-18T07:31:24;102358.44;;;2.81;100.00
53651;BME280;39552;45.776;15.892;2022-12-18T07:33:51;102368.22;;;2.79;100.00
53651;BME280;39552;45.776;15.892;2022-12-18T07:36:18;102369.13;;;2.81;100.00
53651;BME280;39552;45.776;15.892;2022-12-18T07:38:46;102385.31;;;3.00;100.00
53651;BME280;39552;45.776;15.892;2022-12-18T07:41:13;102393.31;;;3.00;100.00
53651;BME280;39552;45.776;15.892;2022-12-18T07:43:41;102388.94;;;3.15;100.00
53651;BME280;39552;45.776;15.892;2022-12-18T07:46:11;102394.41;;;3.37;100.00
53651;BME280;39552;45.776;15.892;2022-12-18T07:48:39;102389.84;;;3.16;100.00
53651;BME280;39552;45.776;15.892;2022-12-18T07:51:06;102398.75;;;3.18;100.00
53651;BME280;39552;45.776;15.892;2022-12-18T07:53:35;102396.19;;;3.37;100.00
53651;BME280;39552;45.776;15.892;2022-12-18T07:56:05;102404.19;;;3.30;100.00
53651;BME280;39552;45.776;15.892;2022-12-18T07:58:52;102404.22;;;3.41;100.00
53651;BME280;39552;45.776;15.892;2022-12-18T08:01:20;102413.09;;;3.34;100.00
53651;BME280;39552;45.776;15.892;2022-12-18T08:03:47;102401.56;;;3.47;100.00
53651;BME280;39552;45.776;15.892;2022-12-18T08:06:18;102411.41;;;3.51;100.00
53651;BME280;39552;45.776;15.892;2022-12-18T08:08:50;102418.59;;;3.65;100.00
53651;BME280;39552;45.776;15.892;2022-12-18T08:11:17;102419.53;;;3.71;100.00
53651;BME280;39552;45.776;15.892;2022-12-18T08:13:45;102398.09;;;3.65;100.00
53651;BME280;39552;45.776;15.892;2022-12-18T08:16:11;102411.47;;;3.68;100.00
53651;BME280;39552;45.776;15.892;2022-12-18T08:18:39;102401.66;;;3.60;100.00
53651;BME280;39552;45.776;15.892;2022-12-18T08:21:10;102408.81;;;3.74;100.00
53651;BME280;39552;45.776;15.892;2022-12-18T08:23:36;102409.75;;;3.86;100.00
53651;BME280;39552;45.776;15.892;2022-12-18T08:26:09;102416.84;;;3.76;100.00
53651;BME280;39552;45.776;15.892;2022-12-18T08:28:35;102408.81;;;3.71;100.00
53651;BME280;39552;45.776;15.892;2022-12-18T08:31:02;102418.72;;;3.97;100.00
53651;BME280;39552;45.776;15.892;2022-12-18T08:33:29;102416.06;;;4.08;100.00
53651;BME280;39552;45.776;15.892;2022-12-18T08:35:58;102416.06;;;4.12;100.00
53651;BME280;39552;45.776;15.892;2022-12-18T08:38:33;102411.63;;;4.25;100.00
53651;BME280;39552;45.776;15.892;2022-12-18T08:41:15;102406.28;;;4.19;100.00
53651;BME280;39552;45.776;15.892;2022-12-18T08:43:59;102426.81;;;4.34;100.00
53651;BME280;39552;45.776;15.892;2022-12-18T08:46:50;102409.81;;;4.18;100.00
53651;BME280;39552;45.776;15.892;2022-12-18T08:49:30;102401.78;;;4.24;100.00
53651;BME280;39552;45.776;15.892;2022-12-18T08:52:26;102420.56;;;4.27;100.00
53651;BME280;39552;45.776;15.892;2022-12-18T08:55:00;102426.81;;;4.22;100.00
53651;BME280;39552;45.776;15.892;2022-12-18T08:57:27;102422.34;;;4.27;100.00
53651;BME280;39552;45.776;15.892;2022-12-18T08:59:53;102409.84;;;4.32;100.00
53651;BME280;39552;45.776;15.892;2022-12-18T09:02:23;102406.22;;;4.13;100.00
53651;BME280;39552;45.776;15.892;2022-12-18T09:04:53;102419.66;;;4.16;100.00
53651;BME280;39552;45.776;15.892;2022-12-18T09:07:30;102430.34;;;4.21;100.00
53651;BME280;39552;45.776;15.892;2022-12-18T09:10:01;102430.38;;;4.11;100.00
53651;BME280;39552;45.776;15.892;2022-12-18T09:12:27;102420.47;;;3.89;100.00
53651;BME280;39552;45.776;15.892;2022-12-18T09:15:04;102440.19;;;4.14;100.00
53651;BME280;39552;45.776;15.892;2022-12-18T09:17:40;102442.84;;;4.19;100.00
53651;BME280;39552;45.776;15.892;2022-12-18T09:20:08;102445.56;;;4.36;100.00
53651;BME280;39552;45.776;15.892;2022-12-18T09:22:36;102445.53;;;4.25;100.00
53651;BME280;39552;45.776;15.892;2022-12-18T09:25:04;102451.78;;;4.16;100.00
53651;BME280;39552;45.776;15.892;2022-12-18T09:27:33;102443.72;;;4.05;100.00
53651;BME280;39552;45.776;15.892;2022-12-18T09:30:11;102440.22;;;4.36;100.00
53651;BME280;39552;45.776;15.892;2022-12-18T09:36:09;102412.50;;;4.10;100.00
53651;BME280;39552;45.776;15.892;2022-12-18T09:38:54;102421.47;;;4.37;100.00
53651;BME280;39552;45.776;15.892;2022-12-18T09:41:53;102420.56;;;4.33;100.00
53651;BME280;39552;45.776;15.892;2022-12-18T09:44:26;102400.88;;;4.05;100.00
53651;BME280;39552;45.776;15.892;2022-12-18T09:47:08;102433.97;;;4.43;100.00
53651;BME280;39552;45.776;15.892;2022-12-18T09:49:40;102416.06;;;4.19;100.00
53651;BME280;39552;45.776;15.892;2022-12-18T09:52:11;102432.19;;;4.48;100.00
53651;BME280;39552;45.776;15.892;2022-12-18T09:54:46;102401.81;;;4.21;100.00
53651;BME280;39552;45.776;15.892;2022-12-18T09:57:18;102421.47;;;4.45;100.00
53651;BME280;39552;45.776;15.892;2022-12-18T09:59:49;102427.75;;;4.56;100.00
53651;BME280;39552;45.776;15.892;2022-12-18T10:02:19;102421.47;;;4.43;100.00
53651;BME280;39552;45.776;15.892;2022-12-18T10:04:53;102423.25;;;4.35;100.00
53651;BME280;39552;45.776;15.892;2022-12-18T10:07:28;102410.72;;;4.48;100.00
53651;BME280;39552;45.776;15.892;2022-12-18T10:10:05;102415.22;;;4.41;100.00
53651;BME280;39552;45.776;15.892;2022-12-18T10:12:41;102425.94;;;4.58;100.00
53651;BME280;39552;45.776;15.892;2022-12-18T10:15:16;102416.09;;;4.56;100.00
53651;BME280;39552;45.776;15.892;2022-12-18T10:17:51;102392.88;;;4.47;100.00
53651;BME280;39552;45.776;15.892;2022-12-18T10:20:25;102398.25;;;4.48;100.00
53651;BME280;39552;45.776;15.892;2022-12-18T10:23:00;102422.34;;;4.75;100.00
53651;BME280;39552;45.776;15.892;2022-12-18T10:25:36;102416.13;;;4.68;100.00
53651;BME280;39552;45.776;15.892;2022-12-18T10:28:10;102408.97;;;4.79;100.00
53651;BME280;39552;45.776;15.892;2022-12-18T10:30:39;102415.19;;;4.78;100.00
53651;BME280;39552;45.776;15.892;2022-12-18T10:33:10;102420.56;;;4.63;100.00
53651;BME280;39552;45.776;15.892;2022-12-18T10:35:40;102404.47;;;4.89;100.00
53651;BME280;39552;45.776;15.892;2022-12-18T10:38:20;102403.56;;;4.91;100.00
53651;BME280;39552;45.776;15.892;2022-12-18T10:40:51;102400.88;;;5.01;100.00
53651;BME280;39552;45.776;15.892;2022-12-18T10:43:23;102388.34;;;5.10;100.00
53651;BME280;39552;45.776;15.892;2022-12-18T10:46:19;102391.91;;;5.02;100.00
53651;BME280;39552;45.776;15.892;2022-12-18T10:48:54;102380.28;;;5.10;100.00
53651;BME280;39552;45.776;15.892;2022-12-18T10:51:23;102364.22;;;4.97;100.00
53651;BME280;39552;45.776;15.892;2022-12-18T10:53:54;102375.78;;;5.17;100.00
53651;BME280;39552;45.776;15.892;2022-12-18T10:56:24;102366.88;;;5.07;100.00
53651;BME280;39552;45.776;15.892;2022-12-18T10:58:55;102383.84;;;5.19;100.00
53651;BME280;39552;45.776;15.892;2022-12-18T11:01:22;102376.69;;;5.15;100.00
53651;BME280;39552;45.776;15.892;2022-12-18T11:03:59;102373.13;;;5.02;100.00
53651;BME280;39552;45.776;15.892;2022-12-18T11:06:28;102374.97;;;4.87;100.00
53651;BME280;39552;45.776;15.892;2022-12-18T11:09:00;102366.91;;;4.95;100.00
53651;BME280;39552;45.776;15.892;2022-12-18T11:11:29;102370.44;;;5.00;100.00
53651;BME280;39552;45.776;15.892;2022-12-18T11:14:01;102365.09;;;5.05;100.00
53651;BME280;39552;45.776;15.892;2022-12-18T11:16:30;102342.78;;;4.97;100.00
53651;BME280;39552;45.776;15.892;2022-12-18T11:19:31;102337.47;;;4.72;100.00
53651;BME280;39552;45.776;15.892;2022-12-18T11:21:59;102358.84;;;4.90;100.00
53651;BME280;39552;45.776;15.892;2022-12-18T11:24:39;102349.00;;;5.00;100.00
53651;BME280;39552;45.776;15.892;2022-12-18T11:27:33;102345.44;;;4.97;100.00
53651;BME280;39552;45.776;15.892;2022-12-18T11:30:09;102329.34;;;5.01;100.00
53651;BME280;39552;45.776;15.892;2022-12-18T11:33:03;102341.81;;;5.15;100.00
53651;BME280;39552;45.776;15.892;2022-12-18T11:35:42;102351.59;;;5.29;100.00
53651;BME280;39552;45.776;15.892;2022-12-18T11:38:19;102347.13;;;5.27;100.00
53651;BME280;39552;45.776;15.892;2022-12-18T11:40:59;102342.69;;;5.17;97.10
53651;BME280;39552;45.776;15.892;2022-12-18T11:43:40;102355.13;;;5.35;97.23
53651;BME280;39552;45.776;15.892;2022-12-18T11:46:23;102335.41;;;5.46;98.46
53651;BME280;39552;45.776;15.892;2022-12-18T11:49:00;102332.63;;;5.66;99.79
53651;BME280;39552;45.776;15.892;2022-12-18T11:51:45;102350.53;;;5.60;100.00
53651;BME280;39552;45.776;15.892;2022-12-18T11:54:20;102345.22;;;5.58;99.20
53651;BME280;39552;45.776;15.892;2022-12-18T11:56:53;102341.38;;;5.95;99.81
53651;BME280;39552;45.776;15.892;2022-12-18T11:59:32;102337.72;;;6.11;98.20
53651;BME280;39552;45.776;15.892;2022-12-18T12:02:16;102352.97;;;6.07;98.49
53651;BME280;39552;45.776;15.892;2022-12-18T12:05:20;102339.53;;;6.06;94.55
53651;BME280;39552;45.776;15.892;2022-12-18T12:07:54;102344.25;;;5.68;100.00
53651;BME280;39552;45.776;15.892;2022-12-18T12:10:45;102338.91;;;5.62;100.00
53651;BME280;39552;45.776;15.892;2022-12-18T12:13:27;102349.75;;;5.44;100.00
53651;BME280;39552;45.776;15.892;2022-12-18T12:16:14;102322.16;;;5.12;100.00
53651;BME280;39552;45.776;15.892;2022-12-18T12:19:01;102340.97;;;5.06;100.00
53651;BME280;39552;45.776;15.892;2022-12-18T12:21:50;102325.75;;;5.04;100.00
53651;BME280;39552;45.776;15.892;2022-12-18T12:24:34;102340.94;;;5.05;100.00
53651;BME280;39552;45.776;15.892;2022-12-18T12:27:26;102326.75;;;4.57;100.00
53651;BME280;39552;45.776;15.892;2022-12-18T12:30:11;102341.06;;;4.62;100.00
53651;BME280;39552;45.776;15.892;2022-12-18T12:33:08;102314.28;;;4.22;100.00
53651;BME280;39552;45.776;15.892;2022-12-18T12:35:48;102328.56;;;4.55;100.00
53651;BME280;39552;45.776;15.892;2022-12-18T12:38:33;102344.63;;;4.21;100.00
53651;BME280;39552;45.776;15.892;2022-12-18T12:41:07;102317.84;;;4.41;100.00
53651;BME280;39552;45.776;15.892;2022-12-18T12:43:47;102322.31;;;4.46;100.00
53651;BME280;39552;45.776;15.892;2022-12-18T12:46:21;102310.69;;;4.57;100.00
53651;BME280;39552;45.776;15.892;2022-12-18T12:48:59;102319.56;;;4.71;100.00
53651;BME280;39552;45.776;15.892;2022-12-18T12:51:29;102301.72;;;4.61;100.00
53651;BME280;39552;45.776;15.892;2022-12-18T12:54:00;102302.59;;;4.67;100.00
53651;BME280;39552;45.776;15.892;2022-12-18T12:56:36;102311.53;;;4.85;100.00
53651;BME280;39552;45.776;15.892;2022-12-18T12:59:13;102319.50;;;4.96;100.00
53651;BME280;39552;45.776;15.892;2022-12-18T13:01:51;102320.47;;;4.79;100.00
53651;BME280;39552;45.776;15.892;2022-12-18T13:04:31;102310.66;;;4.72;100.00
53651;BME280;39552;45.776;15.892;2022-12-18T13:07:11;102311.47;;;4.96;100.00
53651;BME280;39552;45.776;15.892;2022-12-18T13:10:14;102298.19;;;4.54;100.00
53651;BME280;39552;45.776;15.892;2022-12-18T13:13:09;102326.69;;;4.93;100.00
53651;BME280;39552;45.776;15.892;2022-12-18T13:16:07;102301.72;;;4.70;100.00
53651;BME280;39552;45.776;15.892;2022-12-18T13:18:53;102322.28;;;4.66;100.00
53651;BME280;39552;45.776;15.892;2022-12-18T13:21:27;102315.13;;;4.70;100.00
53651;BME280;39552;45.776;15.892;2022-12-18T13:24:08;102313.34;;;4.66;100.00
53651;BME280;39552;45.776;15.892;2022-12-18T13:26:59;102344.66;;;4.48;100.00
53651;BME280;39552;45.776;15.892;2022-12-18T13:29:42;102331.19;;;4.75;100.00
53651;BME280;39552;45.776;15.892;2022-12-18T13:32:23;102333.84;;;4.85;100.00
53651;BME280;39552;45.776;15.892;2022-12-18T13:38:20;102314.16;;;4.99;100.00
53651;BME280;39552;45.776;15.892;2022-12-18T13:41:01;102339.19;;;4.99;100.00
53651;BME280;39552;45.776;15.892;2022-12-18T13:43:39;102310.59;;;4.87;100.00
53651;BME280;39552;45.776;15.892;2022-12-18T13:46:24;102326.69;;;4.97;100.00
53651;BME280;39552;45.776;15.892;2022-12-18T13:48:56;102326.66;;;5.00;100.00
53651;BME280;39552;45.776;15.892;2022-12-18T13:51:42;102340.97;;;4.96;100.00
53651;BME280;39552;45.776;15.892;2022-12-18T13:54:28;102317.72;;;4.96;100.00
53651;BME280;39552;45.776;15.892;2022-12-18T13:57:28;102329.34;;;5.00;100.00
53651;BME280;39552;45.776;15.892;2022-12-18T14:00:23;102324.00;;;4.86;100.00
53651;BME280;39552;45.776;15.892;2022-12-18T14:02:52;102327.59;;;4.82;100.00
53651;BME280;39552;45.776;15.892;2022-12-18T14:05:30;102358.81;;;5.06;100.00
53651;BME280;39552;45.776;15.892;2022-12-18T14:08:05;102351.69;;;4.94;100.00
53651;BME280;39552;45.776;15.892;2022-12-18T14:10:47;102363.31;;;4.98;100.00